sensor_id;sensor_type;location;lat;lon;timestamp;temperature;humidity
52451;DHT22;38366;53.176;6.540;2022-07-29T00:01:55;15.60;99.90
52451;DHT22;38366;53.176;6.540;2022-07-29T00:04:20;15.50;99.90
52451;DHT22;38366;53.176;6.540;2022-07-29T00:06:46;15.50;99.90
52451;DHT22;38366;53.176;6.540;2022-07-29T00:09:12;15.50;99.90
52451;DHT22;38366;53.176;6.540;2022-07-29T00:11:38;15.50;99.90
52451;DHT22;38366;53.176;6.540;2022-07-29T00:14:03;15.50;99.90
52451;DHT22;38366;53.176;6.540;2022-07-29T00:16:29;15.50;99.90
52451;DHT22;38366;53.176;6.540;2022-07-29T00:18:55;15.50;99.90
52451;DHT22;38366;53.176;6.540;2022-07-29T00:21:20;15.50;99.90
52451;DHT22;38366;53.176;6.540;2022-07-29T00:23:46;15.40;99.90
52451;DHT22;38366;53.176;6.540;2022-07-29T00:26:12;15.40;99.90
52451;DHT22;38366;53.176;6.540;2022-07-29T00:28:37;15.40;99.90
52451;DHT22;38366;53.176;6.540;2022-07-29T00:31:03;15.40;99.90
52451;DHT22;38366;53.176;6.540;2022-07-29T00:33:29;15.40;99.90
52451;DHT22;38366;53.176;6.540;2022-07-29T00:35:54;15.40;99.90
52451;DHT22;38366;53.176;6.540;2022-07-29T00:38:20;15.40;99.90
52451;DHT22;38366;53.176;6.540;2022-07-29T00:40:46;15.50;99.90
52451;DHT22;38366;53.176;6.540;2022-07-29T00:43:14;15.50;99.90
52451;DHT22;38366;53.176;6.540;2022-07-29T00:45:40;15.40;99.90
52451;DHT22;38366;53.176;6.540;2022-07-29T00:48:07;15.40;99.90
52451;DHT22;38366;53.176;6.540;2022-07-29T00:50:34;15.40;99.90
52451;DHT22;38366;53.176;6.540;2022-07-29T00:53:00;15.40;99.90
52451;DHT22;38366;53.176;6.540;2022-07-29T00:55:26;15.40;99.90
52451;DHT22;38366;53.176;6.540;2022-07-29T00:57:52;15.40;99.90
52451;DHT22;38366;53.176;6.540;2022-07-29T01:00:20;15.40;99.90
52451;DHT22;38366;53.176;6.540;2022-07-29T01:02:47;15.40;99.90
52451;DHT22;38366;53.176;6.540;2022-07-29T01:05:14;15.40;99.90
52451;DHT22;38366;53.176;6.540;2022-07-29T01:07:41;15.40;99.90
52451;DHT22;38366;53.176;6.540;2022-07-29T01:10:09;15.50;99.90
52451;DHT22;38366;53.176;6.540;2022-07-29T01:12:37;15.40;99.90
52451;DHT22;38366;53.176;6.540;2022-07-29T01:15:04;15.40;99.90
52451;DHT22;38366;53.176;6.540;2022-07-29T01:17:41;15.40;99.90
52451;DHT22;38366;53.176;6.540;2022-07-29T01:32:02;15.40;99.90
52451;DHT22;38366;53.176;6.540;2022-07-29T01:34:53;15.40;99.90
52451;DHT22;38366;53.176;6.540;2022-07-29T01:37:28;15.40;99.90
52451;DHT22;38366;53.176;6.540;2022-07-29T01:39:56;15.40;99.90
52451;DHT22;38366;53.176;6.540;2022-07-29T01:45:02;15.30;99.90
52451;DHT22;38366;53.176;6.540;2022-07-29T01:47:37;15.30;99.90
52451;DHT22;38366;53.176;6.540;2022-07-29T01:50:07;15.30;99.90
52451;DHT22;38366;53.176;6.540;2022-07-29T01:52:58;15.30;99.90
52451;DHT22;38366;53.176;6.540;2022-07-29T01:55:27;15.30;99.90
52451;DHT22;38366;53.176;6.540;2022-07-29T01:57:54;15.30;99.90
52451;DHT22;38366;53.176;6.540;2022-07-29T02:00:22;15.30;99.90
52451;DHT22;38366;53.176;6.540;2022-07-29T02:02:49;15.30;99.90
52451;DHT22;38366;53.176;6.540;2022-07-29T02:05:17;15.30;99.90
52451;DHT22;38366;53.176;6.540;2022-07-29T02:07:46;15.30;99.90
52451;DHT22;38366;53.176;6.540;2022-07-29T02:10:14;15.30;99.90
52451;DHT22;38366;53.176;6.540;2022-07-29T02:12:43;15.30;99.90
52451;DHT22;38366;53.176;6.540;2022-07-29T02:15:10;15.30;99.90
52451;DHT22;38366;53.176;6.540;2022-07-29T02:17:48;15.30;99.90
52451;DHT22;38366;53.176;6.540;2022-07-29T02:20:16;15.30;99.90
52451;DHT22;38366;53.176;6.540;2022-07-29T02:22:43;15.30;99.90
52451;DHT22;38366;53.176;6.540;2022-07-29T02:25:11;15.30;99.90
52451;DHT22;38366;53.176;6.540;2022-07-29T02:27:37;15.30;99.90
52451;DHT22;38366;53.176;6.540;2022-07-29T02:30:05;15.30;99.90
52451;DHT22;38366;53.176;6.540;2022-07-29T02:32:34;15.30;99.90
52451;DHT22;38366;53.176;6.540;2022-07-29T02:35:01;15.30;99.90
52451;DHT22;38366;53.176;6.540;2022-07-29T02:37:28;15.30;99.90
52451;DHT22;38366;53.176;6.540;2022-07-29T02:39:55;15.30;99.90
52451;DHT22;38366;53.176;6.540;2022-07-29T02:42:24;15.30;99.90
52451;DHT22;38366;53.176;6.540;2022-07-29T02:44:52;15.30;99.90
52451;DHT22;38366;53.176;6.540;2022-07-29T02:47:45;15.30;99.90
52451;DHT22;38366;53.176;6.540;2022-07-29T02:50:17;15.30;99.90
52451;DHT22;38366;53.176;6.540;2022-07-29T02:52:52;15.30;99.90
52451;DHT22;38366;53.176;6.540;2022-07-29T02:55:26;15.30;99.90
52451;DHT22;38366;53.176;6.540;2022-07-29T02:58:09;15.30;99.90
52451;DHT22;38366;53.176;6.540;2022-07-29T03:00:40;15.30;99.90
52451;DHT22;38366;53.176;6.540;2022-07-29T03:03:12;15.20;99.90
52451;DHT22;38366;53.176;6.540;2022-07-29T03:05:39;15.20;99.90
52451;DHT22;38366;53.176;6.540;2022-07-29T03:08:07;15.30;99.90
52451;DHT22;38366;53.176;6.540;2022-07-29T03:10:34;15.20;99.90
52451;DHT22;38366;53.176;6.540;2022-07-29T03:13:04;15.20;99.90
52451;DHT22;38366;53.176;6.540;2022-07-29T03:15:31;15.20;99.90
52451;DHT22;38366;53.176;6.540;2022-07-29T03:17:58;15.20;99.90
52451;DHT22;38366;53.176;6.540;2022-07-29T03:20:25;15.20;99.90
52451;DHT22;38366;53.176;6.540;2022-07-29T03:22:53;15.20;99.90
52451;DHT22;38366;53.176;6.540;2022-07-29T03:25:20;15.20;99.90
52451;DHT22;38366;53.176;6.540;2022-07-29T03:27:46;15.20;99.90
52451;DHT22;38366;53.176;6.540;2022-07-29T03:30:13;15.20;99.90
52451;DHT22;38366;53.176;6.540;2022-07-29T03:32:40;15.20;99.90
52451;DHT22;38366;53.176;6.540;2022-07-29T03:35:06;15.20;99.90
52451;DHT22;38366;53.176;6.540;2022-07-29T03:37:32;15.20;99.90
52451;DHT22;38366;53.176;6.540;2022-07-29T03:40:00;15.20;99.90
52451;DHT22;38366;53.176;6.540;2022-07-29T03:42:30;15.20;99.90
52451;DHT22;38366;53.176;6.540;2022-07-29T03:44:57;15.20;99.90
52451;DHT22;38366;53.176;6.540;2022-07-29T03:47:26;15.20;99.90
52451;DHT22;38366;53.176;6.540;2022-07-29T03:49:56;15.20;99.90
52451;DHT22;38366;53.176;6.540;2022-07-29T03:52:24;15.20;99.90
52451;DHT22;38366;53.176;6.540;2022-07-29T03:54:49;15.20;99.90
52451;DHT22;38366;53.176;6.540;2022-07-29T03:57:16;15.10;99.90
52451;DHT22;38366;53.176;6.540;2022-07-29T03:59:44;15.20;99.90
52451;DHT22;38366;53.176;6.540;2022-07-29T04:02:11;15.20;99.90
52451;DHT22;38366;53.176;6.540;2022-07-29T04:04:37;15.10;99.90
52451;DHT22;38366;53.176;6.540;2022-07-29T04:07:04;15.10;99.90
52451;DHT22;38366;53.176;6.540;2022-07-29T04:09:29;15.10;99.90
52451;DHT22;38366;53.176;6.540;2022-07-29T04:11:55;15.20;99.90
52451;DHT22;38366;53.176;6.540;2022-07-29T04:14:21;15.20;99.90
52451;DHT22;38366;53.176;6.540;2022-07-29T04:16:47;15.20;99.90
52451;DHT22;38366;53.176;6.540;2022-07-29T04:19:13;15.20;99.90
52451;DHT22;38366;53.176;6.540;2022-07-29T04:21:39;15.20;99.90
52451;DHT22;38366;53.176;6.540;2022-07-29T04:24:06;15.20;99.90
52451;DHT22;38366;53.176;6.540;2022-07-29T04:26:32;15.20;99.90
52451;DHT22;38366;53.176;6.540;2022-07-29T04:28:57;15.20;99.90
52451;DHT22;38366;53.176;6.540;2022-07-29T04:31:23;15.20;99.90
52451;DHT22;38366;53.176;6.540;2022-07-29T04:33:49;15.20;99.90
52451;DHT22;38366;53.176;6.540;2022-07-29T04:36:14;15.20;99.90
52451;DHT22;38366;53.176;6.540;2022-07-29T04:38:40;15.20;99.90
52451;DHT22;38366;53.176;6.540;2022-07-29T04:41:06;15.20;99.90
52451;DHT22;38366;53.176;6.540;2022-07-29T04:43:34;15.20;99.90
52451;DHT22;38366;53.176;6.540;2022-07-29T04:46:00;15.20;99.90
52451;DHT22;38366;53.176;6.540;2022-07-29T04:48:26;15.30;99.90
52451;DHT22;38366;53.176;6.540;2022-07-29T04:50:52;15.30;99.90
52451;DHT22;38366;53.176;6.540;2022-07-29T04:53:18;15.30;99.90
52451;DHT22;38366;53.176;6.540;2022-07-29T04:55:44;15.30;99.90
52451;DHT22;38366;53.176;6.540;2022-07-29T04:58:11;15.30;99.90
52451;DHT22;38366;53.176;6.540;2022-07-29T05:00:37;15.40;99.90
52451;DHT22;38366;53.176;6.540;2022-07-29T05:03:03;15.40;99.90
52451;DHT22;38366;53.176;6.540;2022-07-29T05:05:29;15.40;99.90
52451;DHT22;38366;53.176;6.540;2022-07-29T05:07:55;15.40;99.90
52451;DHT22;38366;53.176;6.540;2022-07-29T05:10:20;15.40;99.90
52451;DHT22;38366;53.176;6.540;2022-07-29T05:12:46;15.40;99.90
52451;DHT22;38366;53.176;6.540;2022-07-29T05:15:12;15.50;99.90
52451;DHT22;38366;53.176;6.540;2022-07-29T05:17:38;15.50;99.90
52451;DHT22;38366;53.176;6.540;2022-07-29T05:20:05;15.50;99.90
52451;DHT22;38366;53.176;6.540;2022-07-29T05:22:30;15.50;99.90
52451;DHT22;38366;53.176;6.540;2022-07-29T05:24:56;15.50;99.90
52451;DHT22;38366;53.176;6.540;2022-07-29T05:27:22;15.50;99.90
52451;DHT22;38366;53.176;6.540;2022-07-29T05:29:47;15.50;99.90
52451;DHT22;38366;53.176;6.540;2022-07-29T05:32:13;15.60;99.90
52451;DHT22;38366;53.176;6.540;2022-07-29T05:34:40;15.60;99.90
52451;DHT22;38366;53.176;6.540;2022-07-29T05:37:06;15.60;99.90
52451;DHT22;38366;53.176;6.540;2022-07-29T05:39:31;15.60;99.90
52451;DHT22;38366;53.176;6.540;2022-07-29T05:41:57;15.70;99.90
52451;DHT22;38366;53.176;6.540;2022-07-29T05:44:23;15.70;99.90
52451;DHT22;38366;53.176;6.540;2022-07-29T05:46:48;15.80;99.90
52451;DHT22;38366;53.176;6.540;2022-07-29T05:49:14;15.80;99.90
52451;DHT22;38366;53.176;6.540;2022-07-29T05:51:40;15.70;99.90
52451;DHT22;38366;53.176;6.540;2022-07-29T05:54:06;15.80;99.90
52451;DHT22;38366;53.176;6.540;2022-07-29T05:56:31;15.90;99.90
52451;DHT22;38366;53.176;6.540;2022-07-29T05:58:57;15.90;99.90
52451;DHT22;38366;53.176;6.540;2022-07-29T06:01:23;15.90;99.90
52451;DHT22;38366;53.176;6.540;2022-07-29T06:03:48;15.90;99.90
52451;DHT22;38366;53.176;6.540;2022-07-29T06:06:14;16.00;99.90
52451;DHT22;38366;53.176;6.540;2022-07-29T06:08:40;16.00;99.90
52451;DHT22;38366;53.176;6.540;2022-07-29T06:11:06;16.10;99.90
52451;DHT22;38366;53.176;6.540;2022-07-29T06:13:33;16.20;99.90
52451;DHT22;38366;53.176;6.540;2022-07-29T06:15:59;16.20;99.90
52451;DHT22;38366;53.176;6.540;2022-07-29T06:18:24;16.30;99.90
52451;DHT22;38366;53.176;6.540;2022-07-29T06:20:50;16.40;99.90
52451;DHT22;38366;53.176;6.540;2022-07-29T06:23:17;16.50;99.90
52451;DHT22;38366;53.176;6.540;2022-07-29T06:25:42;16.60;99.90
52451;DHT22;38366;53.176;6.540;2022-07-29T06:28:08;16.60;99.90
52451;DHT22;38366;53.176;6.540;2022-07-29T06:30:34;16.70;99.90
52451;DHT22;38366;53.176;6.540;2022-07-29T06:33:00;16.80;99.90
52451;DHT22;38366;53.176;6.540;2022-07-29T06:35:27;16.90;99.90
52451;DHT22;38366;53.176;6.540;2022-07-29T06:37:53;17.00;99.90
52451;DHT22;38366;53.176;6.540;2022-07-29T06:40:19;17.10;99.90
52451;DHT22;38366;53.176;6.540;2022-07-29T06:43:03;17.00;99.90
52451;DHT22;38366;53.176;6.540;2022-07-29T06:45:28;17.10;99.90
52451;DHT22;38366;53.176;6.540;2022-07-29T06:47:54;17.20;99.90
52451;DHT22;38366;53.176;6.540;2022-07-29T06:50:20;17.30;99.90
52451;DHT22;38366;53.176;6.540;2022-07-29T06:52:47;17.50;99.90
52451;DHT22;38366;53.176;6.540;2022-07-29T06:55:13;17.80;99.90
52451;DHT22;38366;53.176;6.540;2022-07-29T06:57:39;18.10;99.90
52451;DHT22;38366;53.176;6.540;2022-07-29T07:00:05;18.30;99.90
52451;DHT22;38366;53.176;6.540;2022-07-29T07:02:32;18.40;99.90
52451;DHT22;38366;53.176;6.540;2022-07-29T07:04:57;18.30;99.90
52451;DHT22;38366;53.176;6.540;2022-07-29T07:07:24;18.20;99.90
52451;DHT22;38366;53.176;6.540;2022-07-29T07:09:50;18.00;99.90
52451;DHT22;38366;53.176;6.540;2022-07-29T07:12:16;18.10;99.90
52451;DHT22;38366;53.176;6.540;2022-07-29T07:14:41;18.00;99.90
52451;DHT22;38366;53.176;6.540;2022-07-29T07:17:07;18.00;99.90
52451;DHT22;38366;53.176;6.540;2022-07-29T07:19:33;18.10;99.90
52451;DHT22;38366;53.176;6.540;2022-07-29T07:21:59;18.20;99.90
52451;DHT22;38366;53.176;6.540;2022-07-29T07:24:25;18.30;99.90
52451;DHT22;38366;53.176;6.540;2022-07-29T07:26:50;18.40;99.90
52451;DHT22;38366;53.176;6.540;2022-07-29T07:29:16;18.50;99.90
52451;DHT22;38366;53.176;6.540;2022-07-29T07:31:42;18.50;99.90
52451;DHT22;38366;53.176;6.540;2022-07-29T07:34:08;18.50;99.90
52451;DHT22;38366;53.176;6.540;2022-07-29T07:36:33;18.50;99.90
52451;DHT22;38366;53.176;6.540;2022-07-29T07:38:59;18.50;99.90
52451;DHT22;38366;53.176;6.540;2022-07-29T07:41:25;18.50;99.90
52451;DHT22;38366;53.176;6.540;2022-07-29T07:43:50;18.60;99.90
52451;DHT22;38366;53.176;6.540;2022-07-29T07:46:16;18.60;99.90
52451;DHT22;38366;53.176;6.540;2022-07-29T07:48:42;18.60;99.90
52451;DHT22;38366;53.176;6.540;2022-07-29T07:51:07;18.60;99.90
52451;DHT22;38366;53.176;6.540;2022-07-29T07:53:33;18.60;99.90
52451;DHT22;38366;53.176;6.540;2022-07-29T07:56:00;18.70;99.90
52451;DHT22;38366;53.176;6.540;2022-07-29T07:58:26;18.60;99.90
52451;DHT22;38366;53.176;6.540;2022-07-29T08:00:52;18.60;99.90
52451;DHT22;38366;53.176;6.540;2022-07-29T08:03:17;18.50;99.90
52451;DHT22;38366;53.176;6.540;2022-07-29T08:05:43;18.50;99.90
52451;DHT22;38366;53.176;6.540;2022-07-29T08:08:09;18.60;99.90
52451;DHT22;38366;53.176;6.540;2022-07-29T08:10:35;18.60;99.90
52451;DHT22;38366;53.176;6.540;2022-07-29T08:13:22;18.70;99.90
52451;DHT22;38366;53.176;6.540;2022-07-29T08:15:49;18.80;99.90
52451;DHT22;38366;53.176;6.540;2022-07-29T08:18:23;18.80;99.90
52451;DHT22;38366;53.176;6.540;2022-07-29T08:20:50;18.80;99.90
52451;DHT22;38366;53.176;6.540;2022-07-29T08:23:16;18.80;99.90
52451;DHT22;38366;53.176;6.540;2022-07-29T08:25:41;18.90;99.90
52451;DHT22;38366;53.176;6.540;2022-07-29T08:28:07;18.80;99.90
52451;DHT22;38366;53.176;6.540;2022-07-29T08:30:34;18.70;99.90
52451;DHT22;38366;53.176;6.540;2022-07-29T08:33:00;18.80;99.90
52451;DHT22;38366;53.176;6.540;2022-07-29T08:35:26;18.90;99.90
52451;DHT22;38366;53.176;6.540;2022-07-29T08:37:52;19.00;99.90
52451;DHT22;38366;53.176;6.540;2022-07-29T08:40:19;19.00;99.90
52451;DHT22;38366;53.176;6.540;2022-07-29T08:42:46;19.00;99.90
52451;DHT22;38366;53.176;6.540;2022-07-29T08:45:11;19.20;99.90
52451;DHT22;38366;53.176;6.540;2022-07-29T08:47:39;19.30;99.90
52451;DHT22;38366;53.176;6.540;2022-07-29T08:50:09;19.40;99.90
52451;DHT22;38366;53.176;6.540;2022-07-29T08:52:40;19.50;99.90
52451;DHT22;38366;53.176;6.540;2022-07-29T08:55:07;19.50;99.90
52451;DHT22;38366;53.176;6.540;2022-07-29T08:57:34;19.50;99.90
52451;DHT22;38366;53.176;6.540;2022-07-29T09:00:03;19.50;99.90
52451;DHT22;38366;53.176;6.540;2022-07-29T09:02:33;19.60;99.90
52451;DHT22;38366;53.176;6.540;2022-07-29T09:05:01;19.70;99.90
52451;DHT22;38366;53.176;6.540;2022-07-29T09:07:30;19.90;99.90
52451;DHT22;38366;53.176;6.540;2022-07-29T09:09:56;19.80;99.90
52451;DHT22;38366;53.176;6.540;2022-07-29T09:12:22;19.80;99.90
52451;DHT22;38366;53.176;6.540;2022-07-29T09:14:50;19.90;99.90
52451;DHT22;38366;53.176;6.540;2022-07-29T09:17:16;19.90;99.90
52451;DHT22;38366;53.176;6.540;2022-07-29T09:19:43;19.90;99.90
52451;DHT22;38366;53.176;6.540;2022-07-29T09:22:09;19.90;99.90
52451;DHT22;38366;53.176;6.540;2022-07-29T09:24:41;20.00;99.90
52451;DHT22;38366;53.176;6.540;2022-07-29T09:29:37;20.10;99.90
52451;DHT22;38366;53.176;6.540;2022-07-29T09:32:05;20.10;99.90
52451;DHT22;38366;53.176;6.540;2022-07-29T09:34:31;20.10;99.90
52451;DHT22;38366;53.176;6.540;2022-07-29T09:36:57;20.10;99.90
52451;DHT22;38366;53.176;6.540;2022-07-29T09:39:37;20.10;99.90
52451;DHT22;38366;53.176;6.540;2022-07-29T09:42:11;20.20;99.90
52451;DHT22;38366;53.176;6.540;2022-07-29T09:44:44;20.10;99.90
52451;DHT22;38366;53.176;6.540;2022-07-29T09:47:10;20.10;99.90
52451;DHT22;38366;53.176;6.540;2022-07-29T09:52:19;20.20;99.90
52451;DHT22;38366;53.176;6.540;2022-07-29T09:54:45;20.20;99.90
52451;DHT22;38366;53.176;6.540;2022-07-29T09:57:25;20.30;99.90
52451;DHT22;38366;53.176;6.540;2022-07-29T10:00:05;20.30;99.90
52451;DHT22;38366;53.176;6.540;2022-07-29T10:02:34;20.20;99.90
52451;DHT22;38366;53.176;6.540;2022-07-29T10:05:02;20.20;99.90
52451;DHT22;38366;53.176;6.540;2022-07-29T10:07:50;20.20;99.90
52451;DHT22;38366;53.176;6.540;2022-07-29T10:10:19;20.20;99.90
52451;DHT22;38366;53.176;6.540;2022-07-29T10:12:55;20.30;99.90
52451;DHT22;38366;53.176;6.540;2022-07-29T10:15:22;20.20;99.90
52451;DHT22;38366;53.176;6.540;2022-07-29T10:17:51;20.20;99.90
52451;DHT22;38366;53.176;6.540;2022-07-29T10:20:17;20.30;99.90
52451;DHT22;38366;53.176;6.540;2022-07-29T10:22:43;20.30;99.90
52451;DHT22;38366;53.176;6.540;2022-07-29T10:25:09;20.40;99.90
52451;DHT22;38366;53.176;6.540;2022-07-29T10:27:36;20.50;99.90
52451;DHT22;38366;53.176;6.540;2022-07-29T10:30:03;20.70;99.90
52451;DHT22;38366;53.176;6.540;2022-07-29T10:32:33;20.80;99.90
52451;DHT22;38366;53.176;6.540;2022-07-29T10:38:02;20.70;99.90
52451;DHT22;38366;53.176;6.540;2022-07-29T10:40:43;20.60;99.90
52451;DHT22;38366;53.176;6.540;2022-07-29T10:43:33;20.70;99.90
52451;DHT22;38366;53.176;6.540;2022-07-29T10:46:02;20.90;99.90
52451;DHT22;38366;53.176;6.540;2022-07-29T10:48:29;21.00;99.90
52451;DHT22;38366;53.176;6.540;2022-07-29T10:51:00;21.10;99.90
52451;DHT22;38366;53.176;6.540;2022-07-29T10:53:47;20.90;99.90
52451;DHT22;38366;53.176;6.540;2022-07-29T10:56:29;20.90;99.90
52451;DHT22;38366;53.176;6.540;2022-07-29T11:01:44;20.90;99.90
52451;DHT22;38366;53.176;6.540;2022-07-29T11:04:09;20.90;99.90
52451;DHT22;38366;53.176;6.540;2022-07-29T11:09:30;20.80;99.90
52451;DHT22;38366;53.176;6.540;2022-07-29T11:11:56;20.80;99.90
52451;DHT22;38366;53.176;6.540;2022-07-29T11:17:23;20.80;99.90
52451;DHT22;38366;53.176;6.540;2022-07-29T11:19:49;20.70;99.90
52451;DHT22;38366;53.176;6.540;2022-07-29T11:22:31;20.80;99.90
52451;DHT22;38366;53.176;6.540;2022-07-29T11:25:17;20.80;99.90
52451;DHT22;38366;53.176;6.540;2022-07-29T11:27:46;20.90;99.90
52451;DHT22;38366;53.176;6.540;2022-07-29T11:30:12;20.90;99.90
52451;DHT22;38366;53.176;6.540;2022-07-29T11:32:43;21.10;99.90
52451;DHT22;38366;53.176;6.540;2022-07-29T11:43:53;22.00;99.90
52451;DHT22;38366;53.176;6.540;2022-07-29T11:46:44;22.40;99.90
52451;DHT22;38366;53.176;6.540;2022-07-29T11:49:11;22.50;99.90
52451;DHT22;38366;53.176;6.540;2022-07-29T11:51:38;22.60;99.90
52451;DHT22;38366;53.176;6.540;2022-07-29T11:54:04;22.90;99.90
52451;DHT22;38366;53.176;6.540;2022-07-29T11:56:31;23.00;99.90
52451;DHT22;38366;53.176;6.540;2022-07-29T11:59:23;23.30;99.90
52451;DHT22;38366;53.176;6.540;2022-07-29T12:01:53;23.40;99.90
52451;DHT22;38366;53.176;6.540;2022-07-29T12:04:19;23.50;99.90
52451;DHT22;38366;53.176;6.540;2022-07-29T12:06:52;23.50;99.90
52451;DHT22;38366;53.176;6.540;2022-07-29T12:09:19;23.50;99.90
52451;DHT22;38366;53.176;6.540;2022-07-29T12:11:46;23.60;99.90
52451;DHT22;38366;53.176;6.540;2022-07-29T12:14:29;23.60;99.90
52451;DHT22;38366;53.176;6.540;2022-07-29T12:16:56;23.70;99.90
52451;DHT22;38366;53.176;6.540;2022-07-29T12:19:22;23.80;99.90
52451;DHT22;38366;53.176;6.540;2022-07-29T12:21:48;23.80;99.90
52451;DHT22;38366;53.176;6.540;2022-07-29T12:24:16;24.00;99.90
52451;DHT22;38366;53.176;6.540;2022-07-29T12:26:53;24.10;99.90
52451;DHT22;38366;53.176;6.540;2022-07-29T12:29:19;24.00;99.90
52451;DHT22;38366;53.176;6.540;2022-07-29T12:31:45;23.90;99.90
52451;DHT22;38366;53.176;6.540;2022-07-29T12:34:13;23.90;99.90
52451;DHT22;38366;53.176;6.540;2022-07-29T12:36:43;23.90;99.80
52451;DHT22;38366;53.176;6.540;2022-07-29T12:39:10;23.90;99.90
52451;DHT22;38366;53.176;6.540;2022-07-29T12:41:37;23.80;99.90
52451;DHT22;38366;53.176;6.540;2022-07-29T12:44:03;24.00;99.90
52451;DHT22;38366;53.176;6.540;2022-07-29T12:46:28;24.00;99.90
52451;DHT22;38366;53.176;6.540;2022-07-29T12:48:54;24.10;99.90
52451;DHT22;38366;53.176;6.540;2022-07-29T12:51:37;24.30;99.90
52451;DHT22;38366;53.176;6.540;2022-07-29T12:54:12;24.30;99.30
52451;DHT22;38366;53.176;6.540;2022-07-29T12:56:40;24.40;98.80
52451;DHT22;38366;53.176;6.540;2022-07-29T12:59:16;24.50;99.20
52451;DHT22;38366;53.176;6.540;2022-07-29T13:01:43;24.70;98.30
52451;DHT22;38366;53.176;6.540;2022-07-29T13:04:09;24.80;98.50
52451;DHT22;38366;53.176;6.540;2022-07-29T13:07:16;25.20;99.00
52451;DHT22;38366;53.176;6.540;2022-07-29T13:09:23;25.30;98.10
52451;DHT22;38366;53.176;6.540;2022-07-29T13:12:06;25.30;97.90
52451;DHT22;38366;53.176;6.540;2022-07-29T13:14:33;25.30;97.60
52451;DHT22;38366;53.176;6.540;2022-07-29T13:19:37;25.70;98.20
52451;DHT22;38366;53.176;6.540;2022-07-29T13:22:03;26.00;97.50
52451;DHT22;38366;53.176;6.540;2022-07-29T13:24:29;26.20;97.10
52451;DHT22;38366;53.176;6.540;2022-07-29T13:26:55;26.30;96.30
52451;DHT22;38366;53.176;6.540;2022-07-29T13:29:21;26.30;96.60
52451;DHT22;38366;53.176;6.540;2022-07-29T13:31:46;26.60;96.50
52451;DHT22;38366;53.176;6.540;2022-07-29T13:34:12;26.80;96.80
52451;DHT22;38366;53.176;6.540;2022-07-29T13:36:38;26.80;95.60
52451;DHT22;38366;53.176;6.540;2022-07-29T13:39:03;27.00;96.10
52451;DHT22;38366;53.176;6.540;2022-07-29T13:41:30;27.10;95.90
52451;DHT22;38366;53.176;6.540;2022-07-29T13:43:55;26.90;95.20
52451;DHT22;38366;53.176;6.540;2022-07-29T13:46:21;26.80;95.70
52451;DHT22;38366;53.176;6.540;2022-07-29T13:48:47;27.00;95.60
52451;DHT22;38366;53.176;6.540;2022-07-29T13:51:13;27.00;95.70
52451;DHT22;38366;53.176;6.540;2022-07-29T13:53:39;27.10;95.30
52451;DHT22;38366;53.176;6.540;2022-07-29T13:56:04;27.10;95.00
52451;DHT22;38366;53.176;6.540;2022-07-29T13:58:32;27.10;95.60
52451;DHT22;38366;53.176;6.540;2022-07-29T14:00:58;27.10;95.60
52451;DHT22;38366;53.176;6.540;2022-07-29T14:03:24;26.90;95.10
52451;DHT22;38366;53.176;6.540;2022-07-29T14:05:50;26.50;94.90
52451;DHT22;38366;53.176;6.540;2022-07-29T14:08:16;26.50;95.40
52451;DHT22;38366;53.176;6.540;2022-07-29T14:10:42;26.50;95.70
52451;DHT22;38366;53.176;6.540;2022-07-29T14:13:08;26.40;95.50
52451;DHT22;38366;53.176;6.540;2022-07-29T14:15:34;26.50;95.00
52451;DHT22;38366;53.176;6.540;2022-07-29T14:17:59;26.40;94.40
52451;DHT22;38366;53.176;6.540;2022-07-29T14:20:26;26.20;94.10
52451;DHT22;38366;53.176;6.540;2022-07-29T14:22:53;26.30;94.80
52451;DHT22;38366;53.176;6.540;2022-07-29T14:25:19;26.30;94.70
52451;DHT22;38366;53.176;6.540;2022-07-29T14:27:45;26.30;94.50
52451;DHT22;38366;53.176;6.540;2022-07-29T14:30:10;26.40;94.40
52451;DHT22;38366;53.176;6.540;2022-07-29T14:32:36;26.30;94.20
52451;DHT22;38366;53.176;6.540;2022-07-29T14:35:02;26.10;94.40
52451;DHT22;38366;53.176;6.540;2022-07-29T14:37:29;26.10;94.60
52451;DHT22;38366;53.176;6.540;2022-07-29T14:39:55;26.20;94.60
52451;DHT22;38366;53.176;6.540;2022-07-29T14:42:25;26.30;94.30
52451;DHT22;38366;53.176;6.540;2022-07-29T14:44:50;26.20;94.10
52451;DHT22;38366;53.176;6.540;2022-07-29T14:47:16;26.10;93.70
52451;DHT22;38366;53.176;6.540;2022-07-29T14:49:41;26.10;94.20
52451;DHT22;38366;53.176;6.540;2022-07-29T14:52:07;26.00;94.50
52451;DHT22;38366;53.176;6.540;2022-07-29T14:54:33;26.00;94.20
52451;DHT22;38366;53.176;6.540;2022-07-29T14:56:59;25.90;94.10
52451;DHT22;38366;53.176;6.540;2022-07-29T14:59:25;25.90;94.50
52451;DHT22;38366;53.176;6.540;2022-07-29T15:01:50;25.90;94.40
52451;DHT22;38366;53.176;6.540;2022-07-29T15:04:16;25.80;94.20
52451;DHT22;38366;53.176;6.540;2022-07-29T15:06:42;25.80;94.60
52451;DHT22;38366;53.176;6.540;2022-07-29T15:09:08;25.80;94.70
52451;DHT22;38366;53.176;6.540;2022-07-29T15:11:34;25.80;94.80
52451;DHT22;38366;53.176;6.540;2022-07-29T15:13:59;25.70;94.90
52451;DHT22;38366;53.176;6.540;2022-07-29T15:16:25;25.60;94.80
52451;DHT22;38366;53.176;6.540;2022-07-29T15:18:50;25.50;94.70
52451;DHT22;38366;53.176;6.540;2022-07-29T15:21:16;25.40;95.00
52451;DHT22;38366;53.176;6.540;2022-07-29T15:23:42;25.40;95.40
52451;DHT22;38366;53.176;6.540;2022-07-29T15:26:07;25.40;95.20
52451;DHT22;38366;53.176;6.540;2022-07-29T15:28:33;25.50;95.50
52451;DHT22;38366;53.176;6.540;2022-07-29T15:30:59;25.40;94.60
52451;DHT22;38366;53.176;6.540;2022-07-29T15:33:25;25.50;94.30
52451;DHT22;38366;53.176;6.540;2022-07-29T15:35:55;25.60;94.50
52451;DHT22;38366;53.176;6.540;2022-07-29T15:38:21;25.30;94.20
52451;DHT22;38366;53.176;6.540;2022-07-29T15:40:46;25.60;94.50
52451;DHT22;38366;53.176;6.540;2022-07-29T15:43:12;25.60;94.40
52451;DHT22;38366;53.176;6.540;2022-07-29T15:45:38;25.60;94.60
52451;DHT22;38366;53.176;6.540;2022-07-29T15:48:04;25.60;95.00
52451;DHT22;38366;53.176;6.540;2022-07-29T15:50:30;25.50;94.70
52451;DHT22;38366;53.176;6.540;2022-07-29T15:52:56;25.50;94.40
52451;DHT22;38366;53.176;6.540;2022-07-29T15:55:21;25.60;94.30
52451;DHT22;38366;53.176;6.540;2022-07-29T15:57:48;25.50;94.70
52451;DHT22;38366;53.176;6.540;2022-07-29T16:00:14;25.50;94.30
52451;DHT22;38366;53.176;6.540;2022-07-29T16:02:42;25.50;94.60
52451;DHT22;38366;53.176;6.540;2022-07-29T16:05:08;25.50;94.60
52451;DHT22;38366;53.176;6.540;2022-07-29T16:07:33;25.50;94.50
52451;DHT22;38366;53.176;6.540;2022-07-29T16:09:59;25.50;94.60
52451;DHT22;38366;53.176;6.540;2022-07-29T16:12:24;25.50;94.70
52451;DHT22;38366;53.176;6.540;2022-07-29T16:14:50;25.50;94.60
52451;DHT22;38366;53.176;6.540;2022-07-29T16:17:16;25.30;94.90